Dale, Texas
Current Conditions -  °F | °C
As of 7:35 PM on Wednesday 22 Oct 2014 (Local Time) from KHYI Reporting Station
Clear Clear  
Wind Chill: 75°   Ceiling: Unl
Heat Index: 75°   Visibility: 10mi
Dew Point: 55°   Wind: 6mph
Humidity: 50%   Direction: 100°E
Pressure: 30.07"   Gusts: NA
Location:  29.93°N, 97.57°W
Report Text: KHYI 230035Z 10005KT 10SM CLR 24/13 A3007 RMK AO1
Loading
Personal Weather Stations






























Interactive Weather Map New forecast layout! Learn more

10-Day Weather Forecast

Advertisements
Track Severe Weather on mobile